sensor_id;sensor_type;location;lat;lon;timestamp;P1;durP1;ratioP1;P2;durP2;ratioP2
29902;SDS011;30288;50.514;9.678;2022-12-29T00:01:10;7.72;;;2.50;;
29902;SDS011;30288;50.514;9.678;2022-12-29T00:03:15;7.18;;;2.33;;
29902;SDS011;30288;50.514;9.678;2022-12-29T00:05:23;9.32;;;2.05;;
29902;SDS011;30288;50.514;9.678;2022-12-29T00:07:28;6.43;;;2.80;;
29902;SDS011;30288;50.514;9.678;2022-12-29T00:09:33;8.65;;;2.60;;
29902;SDS011;30288;50.514;9.678;2022-12-29T00:11:39;7.22;;;2.50;;
29902;SDS011;30288;50.514;9.678;2022-12-29T00:13:44;5.68;;;2.50;;
29902;SDS011;30288;50.514;9.678;2022-12-29T00:16:03;7.32;;;2.55;;
29902;SDS011;30288;50.514;9.678;2022-12-29T00:18:11;6.70;;;2.45;;
29902;SDS011;30288;50.514;9.678;2022-12-29T00:20:18;6.78;;;2.60;;
29902;SDS011;30288;50.514;9.678;2022-12-29T00:22:38;9.68;;;2.33;;
29902;SDS011;30288;50.514;9.678;2022-12-29T00:24:55;7.68;;;2.60;;
29902;SDS011;30288;50.514;9.678;2022-12-29T00:27:13;4.78;;;2.42;;
29902;SDS011;30288;50.514;9.678;2022-12-29T00:29:30;8.57;;;2.50;;
29902;SDS011;30288;50.514;9.678;2022-12-29T00:31:48;6.80;;;2.33;;
29902;SDS011;30288;50.514;9.678;2022-12-29T00:34:07;4.90;;;2.05;;
29902;SDS011;30288;50.514;9.678;2022-12-29T00:36:28;8.43;;;2.20;;
29902;SDS011;30288;50.514;9.678;2022-12-29T00:38:42;7.05;;;2.20;;
29902;SDS011;30288;50.514;9.678;2022-12-29T00:41:06;4.70;;;1.90;;
29902;SDS011;30288;50.514;9.678;2022-12-29T00:43:24;4.35;;;2.03;;
29902;SDS011;30288;50.514;9.678;2022-12-29T00:45:42;4.05;;;1.80;;
29902;SDS011;30288;50.514;9.678;2022-12-29T00:47:47;8.13;;;2.17;;
29902;SDS011;30288;50.514;9.678;2022-12-29T00:49:52;7.35;;;2.13;;
29902;SDS011;30288;50.514;9.678;2022-12-29T00:51:56;5.70;;;2.05;;
29902;SDS011;30288;50.514;9.678;2022-12-29T00:54:07;7.03;;;2.00;;
29902;SDS011;30288;50.514;9.678;2022-12-29T00:56:12;7.05;;;2.08;;
29902;SDS011;30288;50.514;9.678;2022-12-29T00:58:18;7.75;;;2.05;;
29902;SDS011;30288;50.514;9.678;2022-12-29T01:00:23;4.95;;;2.22;;
29902;SDS011;30288;50.514;9.678;2022-12-29T01:02:30;5.28;;;1.98;;
29902;SDS011;30288;50.514;9.678;2022-12-29T01:04:36;3.95;;;1.90;;
29902;SDS011;30288;50.514;9.678;2022-12-29T01:06:42;6.15;;;2.45;;
29902;SDS011;30288;50.514;9.678;2022-12-29T01:08:50;5.40;;;2.08;;
29902;SDS011;30288;50.514;9.678;2022-12-29T01:11:22;7.43;;;2.20;;
29902;SDS011;30288;50.514;9.678;2022-12-29T01:13:24;9.38;;;2.08;;
29902;SDS011;30288;50.514;9.678;2022-12-29T01:15:29;5.85;;;1.90;;
29902;SDS011;30288;50.514;9.678;2022-12-29T01:17:34;6.18;;;1.83;;
29902;SDS011;30288;50.514;9.678;2022-12-29T01:19:39;5.30;;;1.73;;
29902;SDS011;30288;50.514;9.678;2022-12-29T01:21:44;4.30;;;1.90;;
29902;SDS011;30288;50.514;9.678;2022-12-29T01:23:50;5.22;;;2.10;;
29902;SDS011;30288;50.514;9.678;2022-12-29T01:25:55;6.25;;;1.95;;
29902;SDS011;30288;50.514;9.678;2022-12-29T01:28:03;5.30;;;1.90;;
29902;SDS011;30288;50.514;9.678;2022-12-29T01:30:10;8.07;;;2.42;;
29902;SDS011;30288;50.514;9.678;2022-12-29T01:32:18;5.80;;;1.88;;
29902;SDS011;30288;50.514;9.678;2022-12-29T01:34:23;6.35;;;2.38;;
29902;SDS011;30288;50.514;9.678;2022-12-29T01:36:28;7.07;;;2.00;;
29902;SDS011;30288;50.514;9.678;2022-12-29T01:38:34;4.30;;;1.60;;
29902;SDS011;30288;50.514;9.678;2022-12-29T01:40:44;5.72;;;2.00;;
29902;SDS011;30288;50.514;9.678;2022-12-29T01:42:50;7.15;;;2.67;;
29902;SDS011;30288;50.514;9.678;2022-12-29T01:44:58;4.88;;;1.85;;
29902;SDS011;30288;50.514;9.678;2022-12-29T01:47:06;5.40;;;1.95;;
29902;SDS011;30288;50.514;9.678;2022-12-29T01:49:13;5.50;;;2.10;;
29902;SDS011;30288;50.514;9.678;2022-12-29T01:51:23;5.05;;;1.75;;
29902;SDS011;30288;50.514;9.678;2022-12-29T01:53:30;4.25;;;2.05;;
29902;SDS011;30288;50.514;9.678;2022-12-29T01:55:39;4.40;;;1.92;;
29902;SDS011;30288;50.514;9.678;2022-12-29T01:57:49;8.80;;;2.45;;
29902;SDS011;30288;50.514;9.678;2022-12-29T02:00:00;4.40;;;1.67;;
29902;SDS011;30288;50.514;9.678;2022-12-29T02:02:15;5.25;;;2.30;;
29902;SDS011;30288;50.514;9.678;2022-12-29T02:04:21;6.57;;;2.58;;
29902;SDS011;30288;50.514;9.678;2022-12-29T02:06:29;6.40;;;2.25;;
29902;SDS011;30288;50.514;9.678;2022-12-29T02:08:39;5.03;;;1.95;;
29902;SDS011;30288;50.514;9.678;2022-12-29T02:10:45;8.95;;;2.40;;
29902;SDS011;30288;50.514;9.678;2022-12-29T02:12:51;7.63;;;2.50;;
29902;SDS011;30288;50.514;9.678;2022-12-29T02:15:00;6.35;;;2.53;;
29902;SDS011;30288;50.514;9.678;2022-12-29T02:17:08;4.63;;;2.20;;
29902;SDS011;30288;50.514;9.678;2022-12-29T02:19:32;7.13;;;2.00;;
29902;SDS011;30288;50.514;9.678;2022-12-29T02:22:18;5.68;;;2.13;;
29902;SDS011;30288;50.514;9.678;2022-12-29T02:27:31;6.07;;;3.10;;
29902;SDS011;30288;50.514;9.678;2022-12-29T02:30:05;7.03;;;2.30;;
29902;SDS011;30288;50.514;9.678;2022-12-29T02:32:24;5.68;;;2.40;;
29902;SDS011;30288;50.514;9.678;2022-12-29T02:34:40;6.43;;;2.28;;
29902;SDS011;30288;50.514;9.678;2022-12-29T02:36:54;5.88;;;2.42;;
29902;SDS011;30288;50.514;9.678;2022-12-29T02:39:09;5.78;;;2.38;;
29902;SDS011;30288;50.514;9.678;2022-12-29T02:41:27;7.50;;;2.60;;
29902;SDS011;30288;50.514;9.678;2022-12-29T02:43:37;5.63;;;2.20;;
29902;SDS011;30288;50.514;9.678;2022-12-29T02:45:50;3.72;;;1.70;;
29902;SDS011;30288;50.514;9.678;2022-12-29T02:48:04;4.63;;;2.03;;
29902;SDS011;30288;50.514;9.678;2022-12-29T02:50:15;6.55;;;1.92;;
29902;SDS011;30288;50.514;9.678;2022-12-29T02:52:30;7.05;;;1.98;;
29902;SDS011;30288;50.514;9.678;2022-12-29T02:54:40;4.97;;;1.75;;
29902;SDS011;30288;50.514;9.678;2022-12-29T02:56:44;6.80;;;2.08;;
29902;SDS011;30288;50.514;9.678;2022-12-29T02:58:49;5.90;;;2.15;;
29902;SDS011;30288;50.514;9.678;2022-12-29T03:00:57;4.15;;;1.85;;
29902;SDS011;30288;50.514;9.678;2022-12-29T03:03:23;7.93;;;2.20;;
29902;SDS011;30288;50.514;9.678;2022-12-29T03:05:53;3.28;;;1.60;;
29902;SDS011;30288;50.514;9.678;2022-12-29T03:08:22;5.55;;;1.95;;
29902;SDS011;30288;50.514;9.678;2022-12-29T03:10:38;6.53;;;1.83;;
29902;SDS011;30288;50.514;9.678;2022-12-29T03:12:54;4.28;;;1.65;;
29902;SDS011;30288;50.514;9.678;2022-12-29T03:15:20;3.67;;;1.73;;
29902;SDS011;30288;50.514;9.678;2022-12-29T03:17:46;3.75;;;1.50;;
29902;SDS011;30288;50.514;9.678;2022-12-29T03:20:04;5.78;;;1.73;;
29902;SDS011;30288;50.514;9.678;2022-12-29T03:22:15;3.08;;;1.95;;
29902;SDS011;30288;50.514;9.678;2022-12-29T03:24:40;3.80;;;1.60;;
29902;SDS011;30288;50.514;9.678;2022-12-29T03:26:52;6.18;;;1.80;;
29902;SDS011;30288;50.514;9.678;2022-12-29T03:29:06;3.47;;;1.60;;
29902;SDS011;30288;50.514;9.678;2022-12-29T03:31:12;7.65;;;1.70;;
29902;SDS011;30288;50.514;9.678;2022-12-29T03:33:20;2.97;;;1.60;;
29902;SDS011;30288;50.514;9.678;2022-12-29T03:35:35;3.90;;;1.52;;
29902;SDS011;30288;50.514;9.678;2022-12-29T03:37:49;7.03;;;1.65;;
29902;SDS011;30288;50.514;9.678;2022-12-29T03:40:00;4.50;;;1.83;;
29902;SDS011;30288;50.514;9.678;2022-12-29T03:42:07;3.15;;;1.40;;
29902;SDS011;30288;50.514;9.678;2022-12-29T03:44:18;2.88;;;1.30;;
29902;SDS011;30288;50.514;9.678;2022-12-29T03:46:24;5.70;;;1.45;;
29902;SDS011;30288;50.514;9.678;2022-12-29T03:48:29;5.15;;;1.48;;
29902;SDS011;30288;50.514;9.678;2022-12-29T03:50:37;2.92;;;1.20;;
29902;SDS011;30288;50.514;9.678;2022-12-29T03:52:43;2.90;;;1.38;;
29902;SDS011;30288;50.514;9.678;2022-12-29T03:54:48;3.15;;;1.35;;
29902;SDS011;30288;50.514;9.678;2022-12-29T03:56:53;4.35;;;1.50;;
29902;SDS011;30288;50.514;9.678;2022-12-29T03:59:10;3.65;;;1.20;;
29902;SDS011;30288;50.514;9.678;2022-12-29T04:01:16;3.58;;;1.33;;
29902;SDS011;30288;50.514;9.678;2022-12-29T04:03:21;2.92;;;1.30;;
29902;SDS011;30288;50.514;9.678;2022-12-29T04:05:26;5.50;;;1.50;;
29902;SDS011;30288;50.514;9.678;2022-12-29T04:07:36;3.58;;;1.10;;
29902;SDS011;30288;50.514;9.678;2022-12-29T04:09:41;3.22;;;1.30;;
29902;SDS011;30288;50.514;9.678;2022-12-29T04:11:52;5.45;;;1.17;;
29902;SDS011;30288;50.514;9.678;2022-12-29T04:13:58;6.22;;;1.48;;
29902;SDS011;30288;50.514;9.678;2022-12-29T04:16:05;3.53;;;1.08;;
29902;SDS011;30288;50.514;9.678;2022-12-29T04:18:10;4.07;;;1.30;;
29902;SDS011;30288;50.514;9.678;2022-12-29T04:20:19;4.57;;;1.50;;
29902;SDS011;30288;50.514;9.678;2022-12-29T04:22:43;3.85;;;1.17;;
29902;SDS011;30288;50.514;9.678;2022-12-29T04:24:48;5.28;;;1.20;;
29902;SDS011;30288;50.514;9.678;2022-12-29T04:26:53;4.53;;;1.27;;
29902;SDS011;30288;50.514;9.678;2022-12-29T04:29:22;4.07;;;1.30;;
29902;SDS011;30288;50.514;9.678;2022-12-29T04:31:49;2.80;;;0.90;;
29902;SDS011;30288;50.514;9.678;2022-12-29T04:33:58;2.90;;;0.93;;
29902;SDS011;30288;50.514;9.678;2022-12-29T04:36:04;2.80;;;1.23;;
29902;SDS011;30288;50.514;9.678;2022-12-29T04:38:14;2.67;;;1.20;;
29902;SDS011;30288;50.514;9.678;2022-12-29T04:40:21;5.32;;;1.20;;
29902;SDS011;30288;50.514;9.678;2022-12-29T04:42:27;2.85;;;1.10;;
29902;SDS011;30288;50.514;9.678;2022-12-29T04:44:33;5.45;;;1.20;;
29902;SDS011;30288;50.514;9.678;2022-12-29T04:47:05;4.63;;;1.48;;
29902;SDS011;30288;50.514;9.678;2022-12-29T04:49:29;3.67;;;0.95;;
29902;SDS011;30288;50.514;9.678;2022-12-29T04:51:43;3.47;;;1.23;;
29902;SDS011;30288;50.514;9.678;2022-12-29T04:53:52;3.08;;;1.30;;
29902;SDS011;30288;50.514;9.678;2022-12-29T04:55:59;5.07;;;1.13;;
29902;SDS011;30288;50.514;9.678;2022-12-29T04:58:04;2.80;;;1.15;;
29902;SDS011;30288;50.514;9.678;2022-12-29T05:00:11;5.97;;;1.15;;
29902;SDS011;30288;50.514;9.678;2022-12-29T05:02:19;5.43;;;1.23;;
29902;SDS011;30288;50.514;9.678;2022-12-29T05:04:25;5.47;;;1.30;;
29902;SDS011;30288;50.514;9.678;2022-12-29T05:06:31;3.47;;;1.08;;
29902;SDS011;30288;50.514;9.678;2022-12-29T05:08:36;4.03;;;1.10;;
29902;SDS011;30288;50.514;9.678;2022-12-29T05:10:46;2.55;;;1.17;;
29902;SDS011;30288;50.514;9.678;2022-12-29T05:12:51;2.85;;;1.23;;
29902;SDS011;30288;50.514;9.678;2022-12-29T05:14:57;3.03;;;1.10;;
29902;SDS011;30288;50.514;9.678;2022-12-29T05:17:05;4.90;;;1.10;;
29902;SDS011;30288;50.514;9.678;2022-12-29T05:19:10;3.78;;;1.40;;
29902;SDS011;30288;50.514;9.678;2022-12-29T05:21:15;3.97;;;1.63;;
29902;SDS011;30288;50.514;9.678;2022-12-29T05:23:20;3.70;;;1.92;;
29902;SDS011;30288;50.514;9.678;2022-12-29T05:25:31;3.10;;;1.30;;
29902;SDS011;30288;50.514;9.678;2022-12-29T05:30:32;5.97;;;1.48;;
29902;SDS011;30288;50.514;9.678;2022-12-29T05:32:37;3.97;;;1.20;;
29902;SDS011;30288;50.514;9.678;2022-12-29T05:34:42;4.63;;;1.45;;
29902;SDS011;30288;50.514;9.678;2022-12-29T05:36:48;3.70;;;1.10;;
29902;SDS011;30288;50.514;9.678;2022-12-29T05:38:53;4.80;;;1.60;;
29902;SDS011;30288;50.514;9.678;2022-12-29T05:40:59;4.03;;;1.55;;
29902;SDS011;30288;50.514;9.678;2022-12-29T05:43:32;6.53;;;1.70;;
29902;SDS011;30288;50.514;9.678;2022-12-29T05:45:48;5.68;;;1.20;;
29902;SDS011;30288;50.514;9.678;2022-12-29T05:48:12;7.10;;;1.30;;
29902;SDS011;30288;50.514;9.678;2022-12-29T05:50:26;6.40;;;1.35;;
29902;SDS011;30288;50.514;9.678;2022-12-29T05:52:45;7.32;;;1.77;;
29902;SDS011;30288;50.514;9.678;2022-12-29T05:54:51;3.97;;;1.55;;
29902;SDS011;30288;50.514;9.678;2022-12-29T05:56:59;5.15;;;1.60;;
29902;SDS011;30288;50.514;9.678;2022-12-29T05:59:07;3.33;;;1.17;;
29902;SDS011;30288;50.514;9.678;2022-12-29T06:01:13;5.22;;;1.45;;
29902;SDS011;30288;50.514;9.678;2022-12-29T06:03:19;3.40;;;1.30;;
29902;SDS011;30288;50.514;9.678;2022-12-29T06:05:25;3.88;;;1.60;;
29902;SDS011;30288;50.514;9.678;2022-12-29T06:07:31;4.38;;;1.40;;
29902;SDS011;30288;50.514;9.678;2022-12-29T06:09:37;4.40;;;1.58;;
29902;SDS011;30288;50.514;9.678;2022-12-29T06:11:44;5.47;;;1.40;;
29902;SDS011;30288;50.514;9.678;2022-12-29T06:13:50;4.97;;;1.60;;
29902;SDS011;30288;50.514;9.678;2022-12-29T06:15:59;5.93;;;1.40;;
29902;SDS011;30288;50.514;9.678;2022-12-29T06:18:05;4.45;;;1.02;;
29902;SDS011;30288;50.514;9.678;2022-12-29T06:20:19;2.85;;;1.20;;
29902;SDS011;30288;50.514;9.678;2022-12-29T06:22:26;2.58;;;1.27;;
29902;SDS011;30288;50.514;9.678;2022-12-29T06:24:32;6.10;;;1.48;;
29902;SDS011;30288;50.514;9.678;2022-12-29T06:26:37;4.57;;;1.05;;
29902;SDS011;30288;50.514;9.678;2022-12-29T06:28:43;3.17;;;1.20;;
29902;SDS011;30288;50.514;9.678;2022-12-29T06:30:50;3.88;;;1.65;;
29902;SDS011;30288;50.514;9.678;2022-12-29T06:32:58;2.50;;;1.08;;
29902;SDS011;30288;50.514;9.678;2022-12-29T06:35:04;6.63;;;1.40;;
29902;SDS011;30288;50.514;9.678;2022-12-29T06:37:15;4.07;;;1.17;;
29902;SDS011;30288;50.514;9.678;2022-12-29T06:39:20;3.67;;;1.38;;
29902;SDS011;30288;50.514;9.678;2022-12-29T06:41:39;4.68;;;1.30;;
29902;SDS011;30288;50.514;9.678;2022-12-29T06:43:56;3.92;;;1.40;;
29902;SDS011;30288;50.514;9.678;2022-12-29T06:46:23;4.35;;;1.40;;
29902;SDS011;30288;50.514;9.678;2022-12-29T06:48:30;4.68;;;1.50;;
29902;SDS011;30288;50.514;9.678;2022-12-29T06:50:35;3.85;;;1.52;;
29902;SDS011;30288;50.514;9.678;2022-12-29T06:52:40;3.63;;;1.27;;
29902;SDS011;30288;50.514;9.678;2022-12-29T06:54:45;5.80;;;1.67;;
29902;SDS011;30288;50.514;9.678;2022-12-29T06:56:50;3.10;;;1.40;;
29902;SDS011;30288;50.514;9.678;2022-12-29T06:58:55;5.53;;;1.45;;
29902;SDS011;30288;50.514;9.678;2022-12-29T07:01:01;4.40;;;1.40;;
29902;SDS011;30288;50.514;9.678;2022-12-29T07:03:07;5.22;;;1.65;;
29902;SDS011;30288;50.514;9.678;2022-12-29T07:05:15;4.63;;;1.45;;
29902;SDS011;30288;50.514;9.678;2022-12-29T07:07:21;4.10;;;1.35;;
29902;SDS011;30288;50.514;9.678;2022-12-29T07:09:26;5.88;;;1.40;;
29902;SDS011;30288;50.514;9.678;2022-12-29T07:11:31;3.55;;;1.38;;
29902;SDS011;30288;50.514;9.678;2022-12-29T07:13:36;4.45;;;1.60;;
29902;SDS011;30288;50.514;9.678;2022-12-29T07:15:42;4.72;;;1.55;;
29902;SDS011;30288;50.514;9.678;2022-12-29T07:17:47;4.28;;;1.23;;
29902;SDS011;30288;50.514;9.678;2022-12-29T07:19:53;5.15;;;1.40;;
29902;SDS011;30288;50.514;9.678;2022-12-29T07:22:01;4.95;;;1.38;;
29902;SDS011;30288;50.514;9.678;2022-12-29T07:24:07;4.47;;;1.38;;
29902;SDS011;30288;50.514;9.678;2022-12-29T07:26:13;5.00;;;1.20;;
29902;SDS011;30288;50.514;9.678;2022-12-29T07:28:20;2.85;;;1.13;;
29902;SDS011;30288;50.514;9.678;2022-12-29T07:30:25;3.72;;;1.20;;
29902;SDS011;30288;50.514;9.678;2022-12-29T07:32:31;2.63;;;1.40;;
29902;SDS011;30288;50.514;9.678;2022-12-29T07:34:38;2.63;;;1.30;;
29902;SDS011;30288;50.514;9.678;2022-12-29T07:36:43;4.40;;;1.70;;
29902;SDS011;30288;50.514;9.678;2022-12-29T07:38:51;5.18;;;1.55;;
29902;SDS011;30288;50.514;9.678;2022-12-29T07:40:57;4.65;;;1.58;;
29902;SDS011;30288;50.514;9.678;2022-12-29T07:43:02;5.15;;;1.52;;
29902;SDS011;30288;50.514;9.678;2022-12-29T07:45:14;4.07;;;1.60;;
29902;SDS011;30288;50.514;9.678;2022-12-29T07:47:36;7.40;;;1.50;;
29902;SDS011;30288;50.514;9.678;2022-12-29T07:49:41;7.78;;;1.77;;
29902;SDS011;30288;50.514;9.678;2022-12-29T07:51:47;3.78;;;1.60;;
29902;SDS011;30288;50.514;9.678;2022-12-29T07:53:54;4.70;;;1.55;;
29902;SDS011;30288;50.514;9.678;2022-12-29T07:56:01;8.10;;;1.42;;
29902;SDS011;30288;50.514;9.678;2022-12-29T07:58:07;4.05;;;1.35;;
29902;SDS011;30288;50.514;9.678;2022-12-29T08:00:13;5.68;;;1.50;;
29902;SDS011;30288;50.514;9.678;2022-12-29T08:02:19;5.25;;;1.92;;
29902;SDS011;30288;50.514;9.678;2022-12-29T08:04:25;4.40;;;1.60;;
29902;SDS011;30288;50.514;9.678;2022-12-29T08:06:29;4.10;;;1.55;;
29902;SDS011;30288;50.514;9.678;2022-12-29T08:08:34;3.60;;;1.38;;
29902;SDS011;30288;50.514;9.678;2022-12-29T08:10:43;3.97;;;1.40;;
29902;SDS011;30288;50.514;9.678;2022-12-29T08:12:48;3.70;;;1.83;;
29902;SDS011;30288;50.514;9.678;2022-12-29T08:14:53;5.15;;;1.65;;
29902;SDS011;30288;50.514;9.678;2022-12-29T08:16:58;6.10;;;1.63;;
29902;SDS011;30288;50.514;9.678;2022-12-29T08:19:03;6.47;;;1.83;;
29902;SDS011;30288;50.514;9.678;2022-12-29T08:21:08;5.32;;;1.67;;
29902;SDS011;30288;50.514;9.678;2022-12-29T08:23:13;5.25;;;1.25;;
29902;SDS011;30288;50.514;9.678;2022-12-29T08:25:18;4.65;;;2.22;;
29902;SDS011;30288;50.514;9.678;2022-12-29T08:27:27;11.02;;;3.15;;
29902;SDS011;30288;50.514;9.678;2022-12-29T08:29:32;4.90;;;1.65;;
29902;SDS011;30288;50.514;9.678;2022-12-29T08:31:37;4.63;;;1.73;;
29902;SDS011;30288;50.514;9.678;2022-12-29T08:33:42;4.88;;;1.65;;
29902;SDS011;30288;50.514;9.678;2022-12-29T08:35:47;4.78;;;1.77;;
29902;SDS011;30288;50.514;9.678;2022-12-29T08:37:52;5.88;;;1.63;;
29902;SDS011;30288;50.514;9.678;2022-12-29T08:39:57;6.05;;;1.77;;
29902;SDS011;30288;50.514;9.678;2022-12-29T08:42:05;10.35;;;1.73;;
29902;SDS011;30288;50.514;9.678;2022-12-29T08:44:12;5.88;;;2.08;;
29902;SDS011;30288;50.514;9.678;2022-12-29T08:46:17;5.47;;;1.50;;
29902;SDS011;30288;50.514;9.678;2022-12-29T08:48:22;6.53;;;1.88;;
29902;SDS011;30288;50.514;9.678;2022-12-29T08:50:27;6.70;;;1.67;;
29902;SDS011;30288;50.514;9.678;2022-12-29T08:52:32;6.25;;;2.67;;
29902;SDS011;30288;50.514;9.678;2022-12-29T08:54:37;6.50;;;2.17;;
29902;SDS011;30288;50.514;9.678;2022-12-29T08:56:42;3.75;;;1.60;;
29902;SDS011;30288;50.514;9.678;2022-12-29T08:58:49;8.18;;;1.92;;
29902;SDS011;30288;50.514;9.678;2022-12-29T09:00:58;4.75;;;1.80;;
29902;SDS011;30288;50.514;9.678;2022-12-29T09:03:03;7.88;;;2.40;;
29902;SDS011;30288;50.514;9.678;2022-12-29T09:05:08;4.72;;;1.60;;
29902;SDS011;30288;50.514;9.678;2022-12-29T09:07:14;5.00;;;2.20;;
29902;SDS011;30288;50.514;9.678;2022-12-29T09:09:19;6.57;;;1.70;;
29902;SDS011;30288;50.514;9.678;2022-12-29T09:11:24;6.40;;;2.10;;
29902;SDS011;30288;50.514;9.678;2022-12-29T09:13:30;6.28;;;2.25;;
29902;SDS011;30288;50.514;9.678;2022-12-29T09:15:35;4.03;;;2.00;;
29902;SDS011;30288;50.514;9.678;2022-12-29T09:17:43;4.95;;;1.67;;
29902;SDS011;30288;50.514;9.678;2022-12-29T09:19:48;6.78;;;2.00;;
29902;SDS011;30288;50.514;9.678;2022-12-29T09:21:53;5.32;;;1.95;;
29902;SDS011;30288;50.514;9.678;2022-12-29T09:23:58;5.35;;;1.65;;
29902;SDS011;30288;50.514;9.678;2022-12-29T09:26:03;5.63;;;1.70;;
29902;SDS011;30288;50.514;9.678;2022-12-29T09:28:09;5.30;;;2.25;;
29902;SDS011;30288;50.514;9.678;2022-12-29T09:30:14;4.78;;;1.70;;
29902;SDS011;30288;50.514;9.678;2022-12-29T09:32:19;5.93;;;2.33;;
29902;SDS011;30288;50.514;9.678;2022-12-29T09:34:29;5.93;;;2.15;;
29902;SDS011;30288;50.514;9.678;2022-12-29T09:36:34;5.10;;;2.15;;
29902;SDS011;30288;50.514;9.678;2022-12-29T09:38:39;6.03;;;1.83;;
29902;SDS011;30288;50.514;9.678;2022-12-29T09:40:44;7.25;;;2.20;;
29902;SDS011;30288;50.514;9.678;2022-12-29T09:45:47;5.03;;;1.88;;
29902;SDS011;30288;50.514;9.678;2022-12-29T09:48:01;4.63;;;1.65;;
29902;SDS011;30288;50.514;9.678;2022-12-29T09:50:17;5.78;;;2.08;;
29902;SDS011;30288;50.514;9.678;2022-12-29T09:52:29;6.88;;;1.85;;
29902;SDS011;30288;50.514;9.678;2022-12-29T09:54:39;8.52;;;2.25;;
29902;SDS011;30288;50.514;9.678;2022-12-29T09:57:03;5.40;;;1.85;;
29902;SDS011;30288;50.514;9.678;2022-12-29T09:59:14;7.15;;;1.77;;
29902;SDS011;30288;50.514;9.678;2022-12-29T10:01:26;6.22;;;1.95;;
29902;SDS011;30288;50.514;9.678;2022-12-29T10:03:40;4.78;;;1.73;;
29902;SDS011;30288;50.514;9.678;2022-12-29T10:05:55;8.57;;;2.00;;
29902;SDS011;30288;50.514;9.678;2022-12-29T10:08:15;3.47;;;1.70;;
29902;SDS011;30288;50.514;9.678;2022-12-29T10:10:37;5.82;;;2.10;;
29902;SDS011;30288;50.514;9.678;2022-12-29T10:12:57;7.65;;;2.60;;
29902;SDS011;30288;50.514;9.678;2022-12-29T10:15:29;6.70;;;1.95;;
29902;SDS011;30288;50.514;9.678;2022-12-29T10:17:52;8.50;;;2.10;;
29902;SDS011;30288;50.514;9.678;2022-12-29T10:20:14;6.72;;;2.47;;
29902;SDS011;30288;50.514;9.678;2022-12-29T10:22:48;6.15;;;1.98;;
29902;SDS011;30288;50.514;9.678;2022-12-29T10:25:11;4.78;;;1.90;;
29902;SDS011;30288;50.514;9.678;2022-12-29T10:27:22;4.03;;;1.50;;
29902;SDS011;30288;50.514;9.678;2022-12-29T10:29:29;4.38;;;1.85;;
29902;SDS011;30288;50.514;9.678;2022-12-29T10:31:42;6.03;;;2.00;;
29902;SDS011;30288;50.514;9.678;2022-12-29T10:33:51;6.18;;;2.40;;
29902;SDS011;30288;50.514;9.678;2022-12-29T10:36:09;9.32;;;2.70;;
29902;SDS011;30288;50.514;9.678;2022-12-29T10:38:25;7.13;;;1.95;;
29902;SDS011;30288;50.514;9.678;2022-12-29T10:40:40;5.50;;;1.98;;
29902;SDS011;30288;50.514;9.678;2022-12-29T10:44:58;4.57;;;1.70;;
29902;SDS011;30288;50.514;9.678;2022-12-29T10:47:06;7.38;;;1.58;;
29902;SDS011;30288;50.514;9.678;2022-12-29T10:49:17;4.20;;;2.03;;
29902;SDS011;30288;50.514;9.678;2022-12-29T10:51:24;6.82;;;1.70;;
29902;SDS011;30288;50.514;9.678;2022-12-29T10:53:37;4.60;;;1.63;;
29902;SDS011;30288;50.514;9.678;2022-12-29T10:55:48;4.07;;;1.70;;
29902;SDS011;30288;50.514;9.678;2022-12-29T10:57:54;6.60;;;1.70;;
29902;SDS011;30288;50.514;9.678;2022-12-29T11:00:10;4.57;;;1.40;;
29902;SDS011;30288;50.514;9.678;2022-12-29T11:02:25;3.55;;;1.20;;
29902;SDS011;30288;50.514;9.678;2022-12-29T11:04:53;4.53;;;1.38;;
29902;SDS011;30288;50.514;9.678;2022-12-29T11:07:06;4.43;;;1.50;;
29902;SDS011;30288;50.514;9.678;2022-12-29T11:09:21;5.13;;;1.52;;
29902;SDS011;30288;50.514;9.678;2022-12-29T11:11:43;3.42;;;1.10;;
29902;SDS011;30288;50.514;9.678;2022-12-29T11:13:49;3.60;;;1.27;;
29902;SDS011;30288;50.514;9.678;2022-12-29T11:15:55;6.45;;;1.70;;
29902;SDS011;30288;50.514;9.678;2022-12-29T11:18:01;2.60;;;1.10;;
29902;SDS011;30288;50.514;9.678;2022-12-29T11:20:19;3.17;;;1.08;;
29902;SDS011;30288;50.514;9.678;2022-12-29T11:22:38;3.30;;;1.30;;
29902;SDS011;30288;50.514;9.678;2022-12-29T11:24:51;3.65;;;1.60;;
29902;SDS011;30288;50.514;9.678;2022-12-29T11:27:08;7.57;;;1.33;;
29902;SDS011;30288;50.514;9.678;2022-12-29T11:29:26;2.53;;;0.88;;
29902;SDS011;30288;50.514;9.678;2022-12-29T11:31:39;2.38;;;0.75;;
29902;SDS011;30288;50.514;9.678;2022-12-29T11:33:45;4.47;;;1.23;;
29902;SDS011;30288;50.514;9.678;2022-12-29T11:35:51;4.68;;;0.90;;
29902;SDS011;30288;50.514;9.678;2022-12-29T11:38:02;2.08;;;0.77;;
29902;SDS011;30288;50.514;9.678;2022-12-29T11:40:15;16.75;;;1.63;;
29902;SDS011;30288;50.514;9.678;2022-12-29T11:42:23;2.78;;;0.85;;
29902;SDS011;30288;50.514;9.678;2022-12-29T11:44:42;2.28;;;0.75;;
29902;SDS011;30288;50.514;9.678;2022-12-29T11:46:50;2.67;;;0.80;;
29902;SDS011;30288;50.514;9.678;2022-12-29T11:48:57;1.95;;;0.73;;
29902;SDS011;30288;50.514;9.678;2022-12-29T11:51:03;3.40;;;0.85;;
29902;SDS011;30288;50.514;9.678;2022-12-29T11:53:13;2.53;;;0.60;;
29902;SDS011;30288;50.514;9.678;2022-12-29T11:55:27;4.82;;;1.02;;
29902;SDS011;30288;50.514;9.678;2022-12-29T11:57:33;2.15;;;0.52;;
29902;SDS011;30288;50.514;9.678;2022-12-29T11:59:40;1.67;;;0.60;;
29902;SDS011;30288;50.514;9.678;2022-12-29T12:01:47;2.67;;;0.70;;
29902;SDS011;30288;50.514;9.678;2022-12-29T12:03:54;5.78;;;1.48;;
29902;SDS011;30288;50.514;9.678;2022-12-29T12:06:07;2.60;;;0.60;;
29902;SDS011;30288;50.514;9.678;2022-12-29T12:08:19;3.23;;;0.70;;
29902;SDS011;30288;50.514;9.678;2022-12-29T12:10:39;2.22;;;0.70;;
29902;SDS011;30288;50.514;9.678;2022-12-29T12:15:02;4.20;;;0.90;;
29902;SDS011;30288;50.514;9.678;2022-12-29T12:17:22;1.40;;;0.57;;
29902;SDS011;30288;50.514;9.678;2022-12-29T12:19:40;2.15;;;0.80;;
29902;SDS011;30288;50.514;9.678;2022-12-29T12:21:52;4.18;;;0.80;;
29902;SDS011;30288;50.514;9.678;2022-12-29T12:26:42;5.47;;;1.00;;
29902;SDS011;30288;50.514;9.678;2022-12-29T12:29:00;2.90;;;0.68;;
29902;SDS011;30288;50.514;9.678;2022-12-29T12:31:16;2.33;;;0.80;;
29902;SDS011;30288;50.514;9.678;2022-12-29T12:33:31;4.90;;;0.90;;
29902;SDS011;30288;50.514;9.678;2022-12-29T12:35:42;2.80;;;0.90;;
29902;SDS011;30288;50.514;9.678;2022-12-29T12:38:04;2.63;;;1.00;;
29902;SDS011;30288;50.514;9.678;2022-12-29T12:40:34;5.20;;;0.90;;
29902;SDS011;30288;50.514;9.678;2022-12-29T12:43:02;1.23;;;0.65;;
29902;SDS011;30288;50.514;9.678;2022-12-29T12:45:32;2.35;;;0.80;;
29902;SDS011;30288;50.514;9.678;2022-12-29T12:47:52;3.70;;;0.90;;
29902;SDS011;30288;50.514;9.678;2022-12-29T12:50:13;1.95;;;0.63;;
29902;SDS011;30288;50.514;9.678;2022-12-29T12:52:30;4.18;;;0.80;;
29902;SDS011;30288;50.514;9.678;2022-12-29T12:54:54;1.73;;;0.77;;
29902;SDS011;30288;50.514;9.678;2022-12-29T12:57:20;5.60;;;0.90;;
29902;SDS011;30288;50.514;9.678;2022-12-29T12:59:41;3.25;;;0.95;;
29902;SDS011;30288;50.514;9.678;2022-12-29T13:01:58;5.43;;;1.17;;
29902;SDS011;30288;50.514;9.678;2022-12-29T13:04:26;1.77;;;0.63;;
29902;SDS011;30288;50.514;9.678;2022-12-29T13:07:07;3.15;;;0.90;;
29902;SDS011;30288;50.514;9.678;2022-12-29T13:09:25;2.45;;;0.70;;
29902;SDS011;30288;50.514;9.678;2022-12-29T13:11:49;2.00;;;0.60;;
29902;SDS011;30288;50.514;9.678;2022-12-29T13:14:14;4.38;;;1.10;;
29902;SDS011;30288;50.514;9.678;2022-12-29T13:16:34;7.13;;;0.82;;
29902;SDS011;30288;50.514;9.678;2022-12-29T13:18:51;5.65;;;1.20;;
29902;SDS011;30288;50.514;9.678;2022-12-29T13:21:04;3.45;;;0.93;;
29902;SDS011;30288;50.514;9.678;2022-12-29T13:23:17;2.63;;;0.95;;
29902;SDS011;30288;50.514;9.678;2022-12-29T13:25:34;5.45;;;1.15;;